This is the latest recevied weather packets stored in our database for station/object N4CRH-13. If no packets are shown the sender has not sent any weather packets the latest 1 day(s).
| Time | Temp. | Humidity | Pressure | Rain* | Wind** | Luminosity | Snow |
|---|---|---|---|---|---|---|---|
| 1778035512 | -2.22° C | 99% | 1291.1 hPa | 0 mm | 2.68 m/s, 300° | 0 W/m² | - |
| 1778035209 | -2.22° C | 99% | 1291.1 hPa | 0 mm | 2.68 m/s, 292° | 0 W/m² | - |
| 1778034905 | -2.22° C | 99% | 1290.9 hPa | 0 mm | 1.79 m/s, 300° | 0 W/m² | - |
| 1778034602 | -2.22° C | 99% | 1290.9 hPa | 0 mm | 3.13 m/s, 301° | 0 W/m² | - |
| 1778034300 | -2.22° C | 99% | 1290.9 hPa | 0 mm | 4.02 m/s, 283° | 0 W/m² | - |
| 1778033997 | -2.22° C | 99% | 1290.7 hPa | 0 mm | 2.68 m/s, 288° | 0 W/m² | - |
| 1778033694 | -2.22° C | 99% | 1290.7 hPa | 0 mm | 3.13 m/s, 302° | 0 W/m² | - |
| 1778033392 | -2.22° C | 99% | 1290.6 hPa | 0 mm | 3.13 m/s, 301° | 0 W/m² | - |
| 1778033089 | -2.22° C | 99% | 1290.6 hPa | 0 mm | 3.13 m/s, 305° | 0 W/m² | - |
| 1778032786 | -1.67° C | 99% | 1290.6 hPa | 0 mm | 4.47 m/s, 285° | 1 W/m² | - |
| 1778032483 | -1.67° C | 99% | 1290.4 hPa | 0 mm | 3.13 m/s, 297° | 2 W/m² | - |
| 1778032180 | -1.67° C | 99% | 1290.7 hPa | 0 mm | 4.47 m/s, 292° | 4 W/m² | - |
| 1778031877 | -1.67° C | 99% | 1290.6 hPa | 0 mm | 4.02 m/s, 296° | 9 W/m² | - |
| 1778031574 | -1.67° C | 99% | 1290.3 hPa | 0 mm | 4.02 m/s, 295° | 10 W/m² | - |
| 1778031272 | -2.22° C | 99% | 1290.3 hPa | 0 mm | 4.47 m/s, 296° | 9 W/m² | - |
| 1778030968 | -2.22° C | 99% | 1290.1 hPa | 0 mm | 4.02 m/s, 297° | 11 W/m² | - |
| 1778030664 | -1.67° C | 99% | 1290.1 hPa | 0 mm | 3.58 m/s, 298° | 11 W/m² | - |
| 1778030361 | -1.67° C | 99% | 1290.2 hPa | 0 mm | 4.02 m/s, 254° | 9 W/m² | - |
| 1778030059 | -1.67° C | 99% | 1290.1 hPa | 0 mm | 3.13 m/s, 299° | 9 W/m² | - |
| 1778029755 | -1.67° C | 99% | 1290.3 hPa | 0 mm | 4.02 m/s, 300° | 7 W/m² | - |
| 1778029454 | -1.67° C | 99% | 1290.1 hPa | 0 mm | 4.02 m/s, 300° | 11 W/m² | - |
| 1778029150 | -1.67° C | 99% | 1290.2 hPa | 0 mm | 3.58 m/s, 297° | 13 W/m² | - |
| 1778028848 | -1.67° C | 99% | 1290 hPa | 0 mm | 4.02 m/s, 272° | 18 W/m² | - |
| 1778028543 | -1.11° C | 99% | 1290.1 hPa | 0 mm | 3.13 m/s, 317° | 21 W/m² | - |
| 1778028242 | -1.11° C | 99% | 1290.1 hPa | 0 mm | 3.13 m/s, 297° | 19 W/m² | - |
* Rain latest hour (hover to see other rain measurements)
** Current wind speed in m/s (hover to see current wind gust speed)